N139H KIMM-MYEM
Flight info
| Callsign | N139H |
|---|---|
| Flight time | N/A |
| Altitude | 9000 |
| Route | DCT FORTL V7 DHP BR49V ZQA BR53V GUAVA DCT MYEM |
| Aircraft | A139/L-V/N |
Departure
| Time | N/A |
|---|---|
| Airport | Immokalee Regional Airport (KIMM) |
Arrival
| Time | 2026-04-18 18:05 |
|---|---|
| Airport | Governor's Harbour Airport (MYEM) |
| Time | Latitude | Longitude | Altitude | Speed | Heading |
|---|---|---|---|---|---|
| 2026-04-18 16:59 | 24.95969 | -78.78102 | 8955 ft | 150 kts | 81° |
| 2026-04-18 17:00 | 24.96031 | -78.76951 | 8948 ft | 150 kts | 81° |
| 2026-04-18 17:00 | 24.96094 | -78.75786 | 8941 ft | 150 kts | 81° |
| 2026-04-18 17:00 | 24.96155 | -78.74652 | 8939 ft | 150 kts | 81° |
| 2026-04-18 17:00 | 24.96217 | -78.73486 | 8948 ft | 149 kts | 81° |
| 2026-04-18 17:01 | 24.96277 | -78.72349 | 8944 ft | 149 kts | 80° |
| 2026-04-18 17:01 | 24.96339 | -78.71204 | 8934 ft | 150 kts | 80° |
| 2026-04-18 17:01 | 24.96400 | -78.70062 | 8933 ft | 150 kts | 80° |
| 2026-04-18 17:01 | 24.96459 | -78.68921 | 8942 ft | 150 kts | 80° |
| 2026-04-18 17:02 | 24.96522 | -78.67761 | 8940 ft | 150 kts | 81° |
| 2026-04-18 17:02 | 24.96582 | -78.66625 | 8950 ft | 150 kts | 81° |
| 2026-04-18 17:02 | 24.96645 | -78.65456 | 8938 ft | 151 kts | 81° |
| 2026-04-18 17:02 | 24.96704 | -78.64323 | 8952 ft | 150 kts | 81° |
| 2026-04-18 17:03 | 24.96766 | -78.63162 | 8942 ft | 150 kts | 81° |
| 2026-04-18 17:03 | 24.96826 | -78.62014 | 8941 ft | 150 kts | 81° |
| 2026-04-18 17:03 | 24.96885 | -78.60873 | 8943 ft | 149 kts | 81° |
| 2026-04-18 17:03 | 24.96946 | -78.59731 | 8929 ft | 150 kts | 80° |
| 2026-04-18 17:04 | 24.97008 | -78.58588 | 8920 ft | 150 kts | 81° |
| 2026-04-18 17:04 | 24.97067 | -78.57440 | 8930 ft | 149 kts | 80° |
| 2026-04-18 17:04 | 24.97128 | -78.56296 | 8920 ft | 149 kts | 80° |
| 2026-04-18 17:04 | 24.97188 | -78.55160 | 8911 ft | 149 kts | 80° |
| 2026-04-18 17:05 | 24.97250 | -78.54015 | 8898 ft | 150 kts | 81° |
| 2026-04-18 17:05 | 24.97310 | -78.52869 | 8913 ft | 149 kts | 81° |
| 2026-04-18 17:05 | 24.97370 | -78.51725 | 8897 ft | 150 kts | 81° |
| 2026-04-18 17:05 | 24.97430 | -78.50575 | 8900 ft | 150 kts | 81° |
| 2026-04-18 17:06 | 24.97490 | -78.49422 | 8895 ft | 151 kts | 81° |
| 2026-04-18 17:06 | 24.97548 | -78.48268 | 8917 ft | 150 kts | 81° |
| 2026-04-18 17:06 | 24.97608 | -78.47108 | 8909 ft | 151 kts | 81° |
| 2026-04-18 17:06 | 24.97666 | -78.45969 | 8921 ft | 150 kts | 81° |
| 2026-04-18 17:07 | 24.97725 | -78.44816 | 8922 ft | 150 kts | 81° |
| 2026-04-18 17:07 | 24.97784 | -78.43654 | 8917 ft | 150 kts | 80° |
| 2026-04-18 17:07 | 24.97844 | -78.42509 | 8907 ft | 150 kts | 80° |
| 2026-04-18 17:07 | 24.97902 | -78.41374 | 8905 ft | 150 kts | 80° |
| 2026-04-18 17:08 | 24.97961 | -78.40219 | 8906 ft | 149 kts | 81° |
| 2026-04-18 17:08 | 24.98020 | -78.39076 | 8916 ft | 149 kts | 81° |
| 2026-04-18 17:08 | 24.98079 | -78.37946 | 8906 ft | 150 kts | 81° |
| 2026-04-18 17:08 | 24.98137 | -78.36798 | 8911 ft | 149 kts | 81° |
| 2026-04-18 17:09 | 24.98196 | -78.35648 | 8899 ft | 150 kts | 81° |
| 2026-04-18 17:09 | 24.98255 | -78.34491 | 8901 ft | 150 kts | 82° |
| 2026-04-18 17:09 | 24.98313 | -78.33340 | 8918 ft | 149 kts | 81° |
| 2026-04-18 17:09 | 24.98371 | -78.32201 | 8911 ft | 150 kts | 81° |
| 2026-04-18 17:10 | 24.98429 | -78.31045 | 8909 ft | 151 kts | 81° |
| 2026-04-18 17:10 | 24.98488 | -78.29884 | 8914 ft | 150 kts | 81° |
| 2026-04-18 17:10 | 24.98546 | -78.28742 | 8914 ft | 150 kts | 81° |
| 2026-04-18 17:10 | 24.98603 | -78.27599 | 8913 ft | 149 kts | 81° |
| 2026-04-18 17:11 | 24.98662 | -78.26437 | 8902 ft | 150 kts | 81° |
| 2026-04-18 17:11 | 24.98719 | -78.25297 | 8915 ft | 149 kts | 81° |
| 2026-04-18 17:11 | 24.98777 | -78.24154 | 8907 ft | 149 kts | 81° |
| 2026-04-18 17:11 | 24.98834 | -78.23012 | 8919 ft | 149 kts | 81° |
| 2026-04-18 17:12 | 24.98891 | -78.21869 | 8910 ft | 149 kts | 81° |
| 2026-04-18 17:12 | 24.98948 | -78.20732 | 8905 ft | 149 kts | 81° |
| 2026-04-18 17:12 | 24.99007 | -78.19573 | 8894 ft | 150 kts | 81° |
| 2026-04-18 17:12 | 24.99063 | -78.18423 | 8912 ft | 149 kts | 81° |
| 2026-04-18 17:13 | 24.99120 | -78.17267 | 8899 ft | 151 kts | 81° |
| 2026-04-18 17:13 | 24.99177 | -78.16119 | 8912 ft | 150 kts | 81° |
| 2026-04-18 17:13 | 24.99233 | -78.14966 | 8918 ft | 150 kts | 81° |
| 2026-04-18 17:13 | 24.99289 | -78.13824 | 8913 ft | 150 kts | 81° |
| 2026-04-18 17:14 | 24.99348 | -78.12658 | 8911 ft | 150 kts | 81° |
| 2026-04-18 17:14 | 24.99403 | -78.11508 | 8922 ft | 150 kts | 81° |
| 2026-04-18 17:14 | 24.99461 | -78.10362 | 8913 ft | 150 kts | 81° |
| 2026-04-18 17:14 | 24.99517 | -78.09220 | 8916 ft | 149 kts | 81° |
| 2026-04-18 17:15 | 24.99575 | -78.08064 | 8902 ft | 149 kts | 81° |
| 2026-04-18 17:15 | 24.99631 | -78.06917 | 8903 ft | 149 kts | 81° |
| 2026-04-18 17:15 | 24.99687 | -78.05783 | 8896 ft | 150 kts | 81° |
| 2026-04-18 17:15 | 24.99742 | -78.04629 | 8863 ft | 151 kts | 81° |
| 2026-04-18 17:16 | 24.99800 | -78.03462 | 8760 ft | 153 kts | 80° |
| 2026-04-18 17:16 | 24.99861 | -78.02288 | 8650 ft | 153 kts | 80° |
| 2026-04-18 17:16 | 24.99921 | -78.01104 | 8550 ft | 153 kts | 81° |
| 2026-04-18 17:16 | 24.99979 | -77.99939 | 8449 ft | 153 kts | 81° |
| 2026-04-18 17:17 | 25.00037 | -77.98766 | 8342 ft | 153 kts | 80° |
| 2026-04-18 17:17 | 25.00094 | -77.97593 | 8236 ft | 152 kts | 80° |
| 2026-04-18 17:17 | 25.00151 | -77.96421 | 8139 ft | 152 kts | 80° |
| 2026-04-18 17:17 | 25.00209 | -77.95248 | 8035 ft | 152 kts | 80° |
| 2026-04-18 17:18 | 25.00265 | -77.94090 | 7932 ft | 151 kts | 80° |
| 2026-04-18 17:18 | 25.00321 | -77.92940 | 7819 ft | 152 kts | 80° |
| 2026-04-18 17:18 | 25.00377 | -77.91770 | 7720 ft | 151 kts | 80° |
| 2026-04-18 17:18 | 25.00432 | -77.90618 | 7630 ft | 150 kts | 80° |
| 2026-04-18 17:19 | 25.00488 | -77.89459 | 7513 ft | 150 kts | 80° |
| 2026-04-18 17:19 | 25.00543 | -77.88311 | 7402 ft | 150 kts | 80° |
| 2026-04-18 17:19 | 25.00598 | -77.87148 | 7303 ft | 150 kts | 80° |
| 2026-04-18 17:19 | 25.00653 | -77.85998 | 7208 ft | 149 kts | 80° |
| 2026-04-18 17:20 | 25.00709 | -77.84837 | 7093 ft | 150 kts | 80° |
| 2026-04-18 17:20 | 25.00764 | -77.83691 | 6991 ft | 149 kts | 81° |
| 2026-04-18 17:20 | 25.00818 | -77.82555 | 6904 ft | 149 kts | 81° |
| 2026-04-18 17:20 | 25.00870 | -77.81419 | 6892 ft | 147 kts | 82° |
| 2026-04-18 17:21 | 25.00918 | -77.80288 | 6894 ft | 147 kts | 82° |
| 2026-04-18 17:21 | 25.00968 | -77.79155 | 6914 ft | 146 kts | 82° |
| 2026-04-18 17:21 | 25.01018 | -77.78033 | 6916 ft | 145 kts | 81° |
| 2026-04-18 17:21 | 25.01070 | -77.76912 | 6916 ft | 145 kts | 81° |
| 2026-04-18 17:22 | 25.01122 | -77.75795 | 6916 ft | 145 kts | 82° |
| 2026-04-18 17:22 | 25.01175 | -77.74658 | 6917 ft | 146 kts | 82° |
| 2026-04-18 17:22 | 25.01226 | -77.73538 | 6928 ft | 147 kts | 81° |
| 2026-04-18 17:22 | 25.01280 | -77.72388 | 6940 ft | 147 kts | 82° |
| 2026-04-18 17:23 | 25.01332 | -77.71256 | 6950 ft | 146 kts | 81° |
| 2026-04-18 17:23 | 25.01384 | -77.70134 | 6953 ft | 146 kts | 82° |
| 2026-04-18 17:23 | 25.01436 | -77.69007 | 6946 ft | 147 kts | 82° |
| 2026-04-18 17:23 | 25.01490 | -77.67857 | 6949 ft | 148 kts | 82° |
| 2026-04-18 17:24 | 25.01543 | -77.66715 | 6958 ft | 147 kts | 82° |
| 2026-04-18 17:24 | 25.01595 | -77.65590 | 6947 ft | 146 kts | 82° |
| 2026-04-18 17:24 | 25.01647 | -77.64445 | 6940 ft | 147 kts | 82° |
| 2026-04-18 17:24 | 25.01699 | -77.63315 | 6945 ft | 146 kts | 82° |
| 2026-04-18 17:25 | 25.01750 | -77.62202 | 6945 ft | 146 kts | 82° |
| 2026-04-18 17:25 | 25.01802 | -77.61065 | 6951 ft | 145 kts | 82° |
| 2026-04-18 17:25 | 25.01853 | -77.59949 | 6950 ft | 145 kts | 81° |
| 2026-04-18 17:25 | 25.01903 | -77.58840 | 6936 ft | 146 kts | 82° |
| 2026-04-18 17:26 | 25.01954 | -77.57721 | 6959 ft | 145 kts | 81° |
| 2026-04-18 17:26 | 25.02005 | -77.56599 | 6952 ft | 146 kts | 81° |
| 2026-04-18 17:26 | 25.02056 | -77.55472 | 6961 ft | 146 kts | 81° |
| 2026-04-18 17:26 | 25.02109 | -77.54338 | 6957 ft | 147 kts | 82° |
| 2026-04-18 17:27 | 25.02159 | -77.53223 | 6966 ft | 146 kts | 81° |
| 2026-04-18 17:27 | 25.02212 | -77.52094 | 6964 ft | 146 kts | 82° |
| 2026-04-18 17:27 | 25.02313 | -77.49850 | 6958 ft | 147 kts | 82° |
| 2026-04-18 17:28 | 25.02362 | -77.48737 | 6977 ft | 145 kts | 82° |
| 2026-04-18 17:28 | 25.02413 | -77.47615 | 6959 ft | 147 kts | 81° |
| 2026-04-18 17:28 | 25.02463 | -77.46486 | 6969 ft | 146 kts | 82° |
| 2026-04-18 17:28 | 25.02513 | -77.45371 | 6968 ft | 146 kts | 82° |
| 2026-04-18 17:29 | 25.02640 | -77.44260 | 6969 ft | 146 kts | 72° |
| 2026-04-18 17:29 | 25.02873 | -77.43161 | 6962 ft | 147 kts | 71° |
| 2026-04-18 17:29 | 25.03108 | -77.42055 | 6973 ft | 146 kts | 71° |
| 2026-04-18 17:29 | 25.03346 | -77.40951 | 6955 ft | 148 kts | 71° |
| 2026-04-18 17:30 | 25.03579 | -77.39860 | 6968 ft | 148 kts | 71° |
| 2026-04-18 17:30 | 25.03818 | -77.38751 | 6980 ft | 146 kts | 71° |
| 2026-04-18 17:30 | 25.04050 | -77.37662 | 6970 ft | 147 kts | 72° |
| 2026-04-18 17:30 | 25.04287 | -77.36555 | 6966 ft | 147 kts | 71° |
| 2026-04-18 17:31 | 25.04521 | -77.35468 | 6976 ft | 146 kts | 71° |
| 2026-04-18 17:31 | 25.04755 | -77.34369 | 6966 ft | 146 kts | 72° |
| 2026-04-18 17:31 | 25.04990 | -77.33278 | 6971 ft | 147 kts | 72° |
| 2026-04-18 17:31 | 25.05227 | -77.32171 | 6980 ft | 147 kts | 72° |
| 2026-04-18 17:32 | 25.05461 | -77.31078 | 6965 ft | 148 kts | 72° |
| 2026-04-18 17:32 | 25.05699 | -77.29973 | 6969 ft | 147 kts | 72° |
| 2026-04-18 17:32 | 25.05936 | -77.28868 | 6956 ft | 148 kts | 72° |
| 2026-04-18 17:32 | 25.06175 | -77.27750 | 6966 ft | 147 kts | 71° |
| 2026-04-18 17:33 | 25.06409 | -77.26650 | 6964 ft | 148 kts | 71° |
| 2026-04-18 17:33 | 25.06882 | -77.24438 | 6967 ft | 148 kts | 71° |
| 2026-04-18 17:33 | 25.07118 | -77.23338 | 6968 ft | 148 kts | 71° |
| 2026-04-18 17:34 | 25.07356 | -77.22229 | 6965 ft | 147 kts | 71° |
| 2026-04-18 17:34 | 25.07589 | -77.21139 | 6960 ft | 147 kts | 72° |
| 2026-04-18 17:34 | 25.07825 | -77.20039 | 6964 ft | 146 kts | 72° |
| 2026-04-18 17:34 | 25.08056 | -77.18951 | 6957 ft | 146 kts | 72° |
| 2026-04-18 17:35 | 25.08292 | -77.17846 | 6947 ft | 147 kts | 72° |
| 2026-04-18 17:35 | 25.08523 | -77.16754 | 6954 ft | 147 kts | 72° |
| 2026-04-18 17:35 | 25.08760 | -77.15642 | 6964 ft | 147 kts | 72° |
| 2026-04-18 17:35 | 25.08995 | -77.14536 | 6967 ft | 147 kts | 71° |
| 2026-04-18 17:36 | 25.09231 | -77.13429 | 6965 ft | 147 kts | 71° |
| 2026-04-18 17:36 | 25.09467 | -77.12320 | 6958 ft | 148 kts | 71° |
| 2026-04-18 17:36 | 25.09700 | -77.11220 | 6966 ft | 147 kts | 71° |
| 2026-04-18 17:36 | 25.09938 | -77.10107 | 6964 ft | 147 kts | 71° |
| 2026-04-18 17:37 | 25.10171 | -77.09016 | 6951 ft | 147 kts | 71° |
| 2026-04-18 17:37 | 25.10405 | -77.07918 | 6954 ft | 147 kts | 71° |
| 2026-04-18 17:37 | 25.10640 | -77.06812 | 6938 ft | 147 kts | 72° |
| 2026-04-18 17:37 | 25.10875 | -77.05700 | 6866 ft | 147 kts | 71° |
| 2026-04-18 17:38 | 25.11112 | -77.04596 | 6764 ft | 148 kts | 71° |
| 2026-04-18 17:38 | 25.11349 | -77.03490 | 6666 ft | 147 kts | 71° |
| 2026-04-18 17:38 | 25.11584 | -77.02393 | 6560 ft | 147 kts | 71° |
| 2026-04-18 17:38 | 25.11819 | -77.01289 | 6448 ft | 148 kts | 71° |
| 2026-04-18 17:39 | 25.12053 | -77.00190 | 6346 ft | 147 kts | 71° |
| 2026-04-18 17:39 | 25.12287 | -76.99085 | 6246 ft | 147 kts | 71° |
| 2026-04-18 17:39 | 25.12522 | -76.97977 | 6131 ft | 147 kts | 71° |
| 2026-04-18 17:39 | 25.12753 | -76.96885 | 6031 ft | 147 kts | 70° |
| 2026-04-18 17:40 | 25.12986 | -76.95787 | 5931 ft | 146 kts | 70° |
| 2026-04-18 17:40 | 25.13218 | -76.94692 | 5827 ft | 145 kts | 70° |
| 2026-04-18 17:40 | 25.13445 | -76.93619 | 5719 ft | 144 kts | 70° |
| 2026-04-18 17:40 | 25.13677 | -76.92532 | 5610 ft | 144 kts | 70° |
| 2026-04-18 17:41 | 25.13906 | -76.91451 | 5499 ft | 143 kts | 70° |
| 2026-04-18 17:41 | 25.14368 | -76.90482 | 5374 ft | 145 kts | 51° |
| 2026-04-18 17:41 | 25.14926 | -76.89555 | 5278 ft | 145 kts | 51° |
| 2026-04-18 17:41 | 25.15493 | -76.88618 | 5181 ft | 144 kts | 51° |
| 2026-04-18 17:42 | 25.16061 | -76.87682 | 5072 ft | 144 kts | 50° |
| 2026-04-18 17:42 | 25.16624 | -76.86758 | 4959 ft | 144 kts | 50° |
| 2026-04-18 17:42 | 25.17181 | -76.85844 | 4852 ft | 144 kts | 50° |
| 2026-04-18 17:42 | 25.17750 | -76.84911 | 4748 ft | 144 kts | 50° |
| 2026-04-18 17:43 | 25.18307 | -76.83997 | 4651 ft | 142 kts | 50° |
| 2026-04-18 17:43 | 25.18861 | -76.83091 | 4542 ft | 142 kts | 50° |
| 2026-04-18 17:43 | 25.19412 | -76.82188 | 4432 ft | 141 kts | 50° |
| 2026-04-18 17:43 | 25.19968 | -76.81280 | 4322 ft | 141 kts | 50° |
| 2026-04-18 17:44 | 25.20517 | -76.80383 | 4213 ft | 141 kts | 50° |
| 2026-04-18 17:44 | 25.21069 | -76.79482 | 4112 ft | 140 kts | 50° |
| 2026-04-18 17:44 | 25.21615 | -76.78591 | 4002 ft | 140 kts | 50° |
| 2026-04-18 17:44 | 25.22164 | -76.77692 | 3882 ft | 141 kts | 50° |
| 2026-04-18 17:45 | 25.22715 | -76.76792 | 3788 ft | 140 kts | 50° |
| 2026-04-18 17:45 | 25.23263 | -76.75899 | 3679 ft | 139 kts | 50° |
| 2026-04-18 17:45 | 25.23808 | -76.75007 | 3560 ft | 141 kts | 50° |
| 2026-04-18 17:45 | 25.24359 | -76.74107 | 3462 ft | 140 kts | 50° |
| 2026-04-18 17:46 | 25.24898 | -76.73224 | 3358 ft | 139 kts | 50° |
| 2026-04-18 17:46 | 25.25446 | -76.72329 | 3249 ft | 138 kts | 50° |
| 2026-04-18 17:46 | 25.25983 | -76.71451 | 3144 ft | 138 kts | 50° |
| 2026-04-18 17:46 | 25.26521 | -76.70571 | 3038 ft | 137 kts | 50° |
| 2026-04-18 17:47 | 25.27057 | -76.69694 | 2956 ft | 135 kts | 50° |
| 2026-04-18 17:47 | 25.27577 | -76.68834 | 2974 ft | 130 kts | 50° |
| 2026-04-18 17:47 | 25.28064 | -76.68026 | 3020 ft | 121 kts | 49° |
| 2026-04-18 17:47 | 25.28502 | -76.67302 | 3066 ft | 104 kts | 47° |
| 2026-04-18 17:48 | 25.28887 | -76.66670 | 2973 ft | 94 kts | 45° |
| 2026-04-18 17:48 | 25.29250 | -76.66084 | 2921 ft | 91 kts | 47° |
| 2026-04-18 17:48 | 25.29609 | -76.65499 | 2903 ft | 91 kts | 49° |
| 2026-04-18 17:48 | 25.29964 | -76.64916 | 2920 ft | 90 kts | 49° |
| 2026-04-18 17:49 | 25.30318 | -76.64333 | 2933 ft | 91 kts | 49° |
| 2026-04-18 17:49 | 25.30671 | -76.63755 | 2925 ft | 91 kts | 49° |
| 2026-04-18 17:49 | 25.31031 | -76.63168 | 2932 ft | 90 kts | 49° |
| 2026-04-18 17:49 | 25.31385 | -76.62584 | 2936 ft | 91 kts | 49° |
| 2026-04-18 17:50 | 25.31735 | -76.62012 | 2944 ft | 90 kts | 49° |
| 2026-04-18 17:50 | 25.32087 | -76.61433 | 2948 ft | 90 kts | 49° |
| 2026-04-18 17:50 | 25.32444 | -76.60847 | 2950 ft | 90 kts | 48° |
| 2026-04-18 17:50 | 25.32799 | -76.60267 | 2946 ft | 91 kts | 49° |
| 2026-04-18 17:51 | 25.33152 | -76.59689 | 2948 ft | 90 kts | 49° |
| 2026-04-18 17:51 | 25.33507 | -76.59108 | 2945 ft | 91 kts | 49° |
| 2026-04-18 17:51 | 25.33859 | -76.58533 | 2952 ft | 90 kts | 49° |
| 2026-04-18 17:51 | 25.34210 | -76.57953 | 2945 ft | 91 kts | 49° |
| 2026-04-18 17:52 | 25.34567 | -76.57368 | 2949 ft | 90 kts | 49° |
| 2026-04-18 17:52 | 25.34920 | -76.56789 | 2951 ft | 90 kts | 49° |
| 2026-04-18 17:52 | 25.35277 | -76.56197 | 2905 ft | 92 kts | 47° |
| 2026-04-18 17:52 | 25.35643 | -76.55602 | 2811 ft | 92 kts | 47° |
| 2026-04-18 17:53 | 25.36004 | -76.55015 | 2708 ft | 91 kts | 46° |
| 2026-04-18 17:53 | 25.36364 | -76.54426 | 2593 ft | 92 kts | 46° |
| 2026-04-18 17:53 | 25.36719 | -76.53847 | 2490 ft | 90 kts | 47° |
| 2026-04-18 17:53 | 25.37076 | -76.53262 | 2384 ft | 90 kts | 47° |
| 2026-04-18 17:54 | 25.37426 | -76.52689 | 2271 ft | 91 kts | 47° |
| 2026-04-18 17:54 | 25.37780 | -76.52109 | 2231 ft | 90 kts | 49° |
| 2026-04-18 17:54 | 25.38135 | -76.51546 | 2232 ft | 88 kts | 48° |
| 2026-04-18 17:54 | 25.38493 | -76.50980 | 2226 ft | 89 kts | 48° |
| 2026-04-18 17:55 | 25.38846 | -76.50425 | 2233 ft | 89 kts | 48° |
| 2026-04-18 17:55 | 25.39206 | -76.49860 | 2237 ft | 90 kts | 48° |
| 2026-04-18 17:55 | 25.39571 | -76.49290 | 2243 ft | 90 kts | 47° |
| 2026-04-18 17:55 | 25.39934 | -76.48724 | 2250 ft | 90 kts | 47° |
| 2026-04-18 17:56 | 25.40299 | -76.48154 | 2282 ft | 86 kts | 47° |
| 2026-04-18 17:56 | 25.40630 | -76.47632 | 2285 ft | 80 kts | 46° |
| 2026-04-18 17:56 | 25.41278 | -76.46629 | 2242 ft | 78 kts | 46° |
| 2026-04-18 17:57 | 25.41596 | -76.46134 | 2236 ft | 78 kts | 47° |
| 2026-04-18 17:57 | 25.42230 | -76.45142 | 2242 ft | 79 kts | 47° |
| 2026-04-18 17:58 | 25.42218 | -76.44018 | 2264 ft | 83 kts | 121° |
| 2026-04-18 17:58 | 25.41356 | -76.43220 | 2097 ft | 83 kts | 123° |
| 2026-04-18 17:59 | 25.40429 | -76.42443 | 1892 ft | 82 kts | 125° |
| 2026-04-18 17:59 | 25.39963 | -76.42068 | 1779 ft | 82 kts | 125° |
| 2026-04-18 17:59 | 25.39022 | -76.41321 | 1634 ft | 81 kts | 126° |
| 2026-04-18 18:00 | 25.38562 | -76.40961 | 1623 ft | 80 kts | 127° |
| 2026-04-18 18:00 | 25.37642 | -76.40245 | 1636 ft | 80 kts | 127° |
| 2026-04-18 18:01 | 25.36727 | -76.39532 | 1653 ft | 79 kts | 127° |
| 2026-04-18 18:01 | 25.35813 | -76.38819 | 1598 ft | 81 kts | 127° |
| 2026-04-18 18:02 | 25.34880 | -76.38095 | 1391 ft | 82 kts | 125° |
| 2026-04-18 18:02 | 25.33937 | -76.37360 | 1167 ft | 82 kts | 125° |
| 2026-04-18 18:02 | 25.33469 | -76.36996 | 1058 ft | 82 kts | 125° |
| 2026-04-18 18:03 | 25.32529 | -76.36259 | 833 ft | 82 kts | 127° |
| 2026-04-18 18:03 | 25.32062 | -76.35897 | 721 ft | 82 kts | 126° |
| 2026-04-18 18:04 | 25.31124 | -76.35167 | 493 ft | 82 kts | 126° |
| 2026-04-18 18:04 | 25.30664 | -76.34813 | 382 ft | 79 kts | 125° |
| 2026-04-18 18:04 | 25.29773 | -76.34122 | 221 ft | 73 kts | 133° |
| 2026-04-18 18:05 | 25.29097 | -76.33590 | 28 ft | 39 kts | 141° |
| 2026-04-18 18:05 | 25.28917 | -76.33444 | 31 ft | 19 kts | 155° |
| 2026-04-18 18:05 | 25.28820 | -76.33369 | 38 ft | 27 kts | 146° |
| 2026-04-18 18:06 | 25.28329 | -76.33000 | 73 ft | 46 kts | 135° |
| 2026-04-18 18:06 | 25.28084 | -76.32803 | 63 ft | 41 kts | 137° |
| 2026-04-18 18:06 | 25.27896 | -76.32665 | 48 ft | 23 kts | 128° |
| 2026-04-18 18:07 | 25.27815 | -76.32589 | 33 ft | 8 kts | 112° |
| 2026-04-18 18:07 | 25.27813 | -76.32549 | 34 ft | 3 kts | 62° |
| 2026-04-18 18:07 | 25.27846 | -76.32494 | 37 ft | 4 kts | 56° |
| 2026-04-18 18:08 | 25.27860 | -76.32471 | 38 ft | 4 kts | 61° |
| 2026-04-18 18:08 | 25.27877 | -76.32442 | 39 ft | 3 kts | 67° |
| 2026-04-18 18:08 | 25.27873 | -76.32410 | 39 ft | 3 kts | 122° |
| 2026-04-18 18:08 | 25.27859 | -76.32394 | 39 ft | 2 kts | 111° |
| 2026-04-18 18:09 | 25.27863 | -76.32380 | 39 ft | 2 kts | 60° |
| 2026-04-18 18:09 | 25.27863 | -76.32379 | 39 ft | 0 kts | 58° |